Strona główna
METAR-TAF:

METAR-TAF

Lotnisko :

Port lotniczy Newquay

Newquay Cornwall, Anglia

Szerokość geograficzna: 50-26N, Długość geograficzna: 005-00W, wysokość: 119 m

Aktualna obserwacja pogody

Raport powstał 35 minut temu, godzina 01:50 UTC
Wiatr 16 kt od wschodnio-północny wschód
Temperatura 4°C
Wilgotność 56%
Ciśnienie 1036 hPa
Widzialność 10 km lub więcej

METAR: EGHQ 290150Z AUTO 06016KT 9999 NCD 04/M04 Q1036

czas: 03:25 (02:25 UTC)

Prognoza

Raport powstał 3 godziny i 31 minut temu, godzina 22:54 UTC
Prognoza ważna od 29 godzina 00 UTC do 29 godzina 09 UTC
Wiatr 15 kt od północny wschód
Widzialność 10 km lub więcej
Mało chmury na wysokości 3500 ft
Prawdopodobieństwo 30% :
Przejściowo
od 29 godzina 00 UTC do 29 godzina 09 UTC
Wiatr 18 kt od północny wschód w porywach dochodzący do 28 kt

TAF: EGHQ 282254Z 2900/2909 05015KT 9999 FEW035 PROB30 TEMPO 2900/2909 05018G28KT

Obserwacja i prognoza pogody dla ponad 4000 lotnisk (raport METAR i TAF).

Dostępne stacje oznaczono żółtymi i czerwonymi punktami na mapie.

Najedź kursorem aby zobaczyć nazwę stacji.

Kliknij aby zobaczyć obserwacje i prognozy pogody.

Aby zmienić mapę: kliknij na zielony przycisk z czarnym krzyżykiem, aby powiększyć; na zielony przycisk z myślnikiem, aby pomniejszyć; na zielone strzałki, aby przejść do map sąsiednich.


METAR-TAF: